createdAt,value
2022-12-01T00:01:03.067Z,6.80
2022-12-01T00:03:30.186Z,6.80
2022-12-01T00:06:00.284Z,6.90
2022-12-01T00:08:27.554Z,6.90
2022-12-01T00:10:54.764Z,6.80
2022-12-01T00:13:21.500Z,6.90
2022-12-01T00:15:48.189Z,6.80
2022-12-01T00:18:14.946Z,6.80
2022-12-01T00:20:41.752Z,6.90
2022-12-01T00:23:08.526Z,6.90
2022-12-01T00:25:35.260Z,6.90
2022-12-01T00:28:01.946Z,6.80
2022-12-01T00:30:28.713Z,6.60
2022-12-01T00:32:55.467Z,6.60
2022-12-01T00:35:22.201Z,6.60
2022-12-01T00:37:48.885Z,6.70
2022-12-01T00:40:15.713Z,6.60
2022-12-01T00:42:42.435Z,6.50
2022-12-01T00:45:09.513Z,6.50
2022-12-01T00:47:36.311Z,6.50
2022-12-01T00:50:03.323Z,6.50
2022-12-01T00:52:30.158Z,6.50
2022-12-01T00:54:56.915Z,6.60
2022-12-01T00:57:23.612Z,6.40
2022-12-01T00:59:50.689Z,6.50
2022-12-01T01:02:17.707Z,6.50
2022-12-01T01:04:44.551Z,6.50
2022-12-01T01:07:11.204Z,6.60
2022-12-01T01:09:37.937Z,6.60
2022-12-01T01:12:04.694Z,6.60
2022-12-01T01:14:31.483Z,6.60
2022-12-01T01:16:58.309Z,6.70
2022-12-01T01:19:25.110Z,6.40
2022-12-01T01:21:51.801Z,6.60
2022-12-01T01:24:18.583Z,6.60
2022-12-01T01:26:45.297Z,6.60
2022-12-01T01:29:12.030Z,6.50
2022-12-01T01:31:38.912Z,6.30
2022-12-01T01:34:05.656Z,6.10
2022-12-01T01:36:32.470Z,6.20
2022-12-01T01:38:59.191Z,6.40
2022-12-01T01:41:25.937Z,6.40
2022-12-01T01:43:55.515Z,6.40
2022-12-01T01:46:26.150Z,6.50
2022-12-01T01:48:52.901Z,6.50
2022-12-01T01:51:21.162Z,6.60
2022-12-01T01:53:48.030Z,6.60
2022-12-01T01:56:14.807Z,6.50
2022-12-01T01:58:41.527Z,6.50
2022-12-01T02:01:08.816Z,6.30
2022-12-01T02:03:35.995Z,6.20
2022-12-01T02:06:05.138Z,6.10
2022-12-01T02:08:33.062Z,6.40
2022-12-01T02:11:04.762Z,6.40
2022-12-01T02:14:00.817Z,6.30
2022-12-01T02:16:46.130Z,6.30
2022-12-01T02:19:31.505Z,6.40
2022-12-01T02:22:16.372Z,6.30
2022-12-01T02:24:50.633Z,6.20
2022-12-01T02:27:25.327Z,6.30
2022-12-01T02:30:08.530Z,6.00
2022-12-01T02:32:41.236Z,5.90
2022-12-01T02:35:22.464Z,6.10
2022-12-01T02:38:07.911Z,6.30
2022-12-01T02:40:40.418Z,6.20
2022-12-01T02:43:10.332Z,6.20
2022-12-01T02:45:40.986Z,6.20
2022-12-01T02:48:27.566Z,6.30
2022-12-01T02:50:54.892Z,6.30
2022-12-01T02:53:21.668Z,6.20
2022-12-01T02:55:49.162Z,6.40
2022-12-01T02:58:15.885Z,6.30
2022-12-01T03:00:44.988Z,6.30
2022-12-01T03:03:27.019Z,6.30
2022-12-01T03:06:17.050Z,6.40
2022-12-01T03:08:49.354Z,6.40
2022-12-01T03:11:27.257Z,6.30
2022-12-01T03:13:57.594Z,6.20
2022-12-01T03:16:28.262Z,6.10
2022-12-01T03:18:59.998Z,6.20
2022-12-01T03:21:48.287Z,6.10
2022-12-01T03:24:15.573Z,6.00
2022-12-01T03:26:42.949Z,6.10
2022-12-01T03:29:10.603Z,5.90
2022-12-01T03:31:40.590Z,5.70
2022-12-01T03:34:09.497Z,5.80
2022-12-01T03:36:40.216Z,6.00
2022-12-01T03:39:08.833Z,6.00
2022-12-01T03:41:36.664Z,6.00
2022-12-01T03:44:04.460Z,6.00
2022-12-01T03:46:51.117Z,6.00
2022-12-01T03:49:17.955Z,6.10
2022-12-01T03:51:56.867Z,6.10
2022-12-01T03:54:46.671Z,6.00
2022-12-01T03:57:26.622Z,6.00
2022-12-01T03:59:53.336Z,6.20
2022-12-01T04:02:20.052Z,6.20
2022-12-01T04:04:46.816Z,6.20
2022-12-01T04:07:14.384Z,6.10
2022-12-01T04:09:41.727Z,5.90
2022-12-01T04:12:28.282Z,6.00
2022-12-01T04:14:55.999Z,6.00
2022-12-01T04:17:22.866Z,5.90
2022-12-01T04:19:49.899Z,6.00
2022-12-01T04:22:16.784Z,6.10
2022-12-01T04:24:43.497Z,5.90
2022-12-01T04:27:10.200Z,5.50
2022-12-01T04:29:37.001Z,5.70
2022-12-01T04:32:03.793Z,5.80
2022-12-01T04:34:30.444Z,5.90
2022-12-01T04:36:57.170Z,6.00
2022-12-01T04:39:23.914Z,6.10
2022-12-01T04:41:50.650Z,6.10
2022-12-01T04:44:17.386Z,6.20
2022-12-01T04:46:44.247Z,6.20
2022-12-01T04:49:10.951Z,6.10
2022-12-01T04:51:37.717Z,6.20
2022-12-01T04:54:05.949Z,6.10
2022-12-01T04:56:33.565Z,6.20
2022-12-01T04:59:00.692Z,6.20
2022-12-01T05:01:27.574Z,6.30
2022-12-01T05:03:54.350Z,6.20
2022-12-01T05:06:25.160Z,6.20
2022-12-01T05:08:52.025Z,6.20
2022-12-01T05:11:18.756Z,6.20
2022-12-01T05:13:46.328Z,6.30
2022-12-01T05:16:13.077Z,6.20
2022-12-01T05:18:39.911Z,6.20
2022-12-01T05:21:07.472Z,6.10
2022-12-01T05:23:34.539Z,6.00
2022-12-01T05:26:01.609Z,6.00
2022-12-01T05:28:28.870Z,6.10
2022-12-01T05:30:55.632Z,6.20
2022-12-01T05:33:22.672Z,6.30
2022-12-01T05:35:49.643Z,6.30
2022-12-01T05:38:16.351Z,6.30
2022-12-01T05:40:43.102Z,6.30
2022-12-01T05:43:09.855Z,6.20
2022-12-01T05:45:36.616Z,6.30
2022-12-01T05:48:03.399Z,6.40
2022-12-01T05:50:30.236Z,6.40
2022-12-01T05:52:56.894Z,6.40
2022-12-01T05:55:23.691Z,6.40
2022-12-01T05:57:50.431Z,6.30
2022-12-01T06:00:17.402Z,6.20
2022-12-01T06:02:44.155Z,6.20
2022-12-01T06:05:10.910Z,6.30
2022-12-01T06:07:40.264Z,6.30
2022-12-01T06:10:08.232Z,6.30
2022-12-01T06:12:34.984Z,6.20
2022-12-01T06:15:01.690Z,6.20
2022-12-01T06:17:28.405Z,6.30
2022-12-01T06:19:55.317Z,6.50
2022-12-01T06:22:22.084Z,6.30
2022-12-01T06:24:48.909Z,6.20
2022-12-01T06:27:15.733Z,6.20
2022-12-01T06:29:42.560Z,6.20
2022-12-01T06:32:09.382Z,6.20
2022-12-01T06:34:36.136Z,6.20
2022-12-01T06:37:02.845Z,6.20
2022-12-01T06:39:29.585Z,6.20
2022-12-01T06:41:56.236Z,6.40
2022-12-01T06:44:22.923Z,6.40
2022-12-01T06:46:52.964Z,6.20
2022-12-01T06:49:19.833Z,6.30
2022-12-01T06:51:46.632Z,6.10
2022-12-01T06:54:14.436Z,6.00
2022-12-01T06:56:42.925Z,6.10
2022-12-01T06:59:10.029Z,6.00
2022-12-01T07:01:37.112Z,6.10
2022-12-01T07:04:03.903Z,6.00
2022-12-01T07:06:31.012Z,6.00
2022-12-01T07:08:57.720Z,6.00
2022-12-01T07:11:24.422Z,6.20
2022-12-01T07:13:54.043Z,6.40
2022-12-01T07:16:20.801Z,6.30
2022-12-01T07:18:47.589Z,6.20
2022-12-01T07:21:14.811Z,6.10
2022-12-01T07:23:41.576Z,6.20
2022-12-01T07:26:10.116Z,6.20
2022-12-01T07:28:36.779Z,6.00
2022-12-01T07:31:10.543Z,6.20
2022-12-01T07:33:37.355Z,6.20
2022-12-01T07:36:04.346Z,6.20
2022-12-01T07:38:31.522Z,6.20
2022-12-01T07:41:04.859Z,6.20
2022-12-01T07:43:31.947Z,6.40
2022-12-01T07:46:15.762Z,6.30
2022-12-01T07:48:45.679Z,6.20
2022-12-01T07:51:13.056Z,6.10
2022-12-01T07:53:39.850Z,6.10
2022-12-01T07:56:08.748Z,6.10
2022-12-01T07:58:35.760Z,6.40
2022-12-01T08:01:06.367Z,6.40
2022-12-01T08:03:33.120Z,6.40
2022-12-01T08:06:00.077Z,6.30
2022-12-01T08:08:26.861Z,6.20
2022-12-01T08:10:53.761Z,6.20
2022-12-01T08:13:20.877Z,6.40
2022-12-01T08:15:47.637Z,6.50
2022-12-01T08:18:14.389Z,6.70
2022-12-01T08:20:41.099Z,6.80
2022-12-01T08:23:08.222Z,6.70
2022-12-01T08:25:34.880Z,6.70
2022-12-01T08:28:01.568Z,6.60
2022-12-01T08:30:28.565Z,6.40
2022-12-01T08:32:55.678Z,6.30
2022-12-01T08:35:22.416Z,6.30
2022-12-01T08:37:51.459Z,6.30
2022-12-01T08:40:18.302Z,6.40
2022-12-01T08:42:45.025Z,6.60
2022-12-01T08:45:11.736Z,6.50
2022-12-01T08:47:38.485Z,6.50
2022-12-01T08:50:06.316Z,6.60
2022-12-01T08:52:33.204Z,6.70
2022-12-01T08:55:00.122Z,6.50
2022-12-01T08:57:26.870Z,6.50
2022-12-01T08:59:53.653Z,6.50
2022-12-01T09:02:23.217Z,6.60
2022-12-01T09:04:50.370Z,6.50
2022-12-01T09:07:21.527Z,6.40
2022-12-01T09:09:52.897Z,6.40
2022-12-01T09:12:19.649Z,6.70
2022-12-01T09:14:48.409Z,6.50
2022-12-01T09:17:15.636Z,6.40
2022-12-01T09:19:42.696Z,6.40
2022-12-01T09:22:09.829Z,6.40
2022-12-01T09:24:36.584Z,6.50
2022-12-01T09:27:03.478Z,6.30
2022-12-01T09:29:30.393Z,6.30
2022-12-01T09:31:57.338Z,6.30
2022-12-01T09:34:24.096Z,6.40
2022-12-01T09:36:50.885Z,6.20
2022-12-01T09:39:18.530Z,6.30
2022-12-01T09:41:45.423Z,6.40
2022-12-01T09:44:15.809Z,6.50
2022-12-01T09:46:50.613Z,6.50
2022-12-01T09:49:29.269Z,6.60
2022-12-01T09:51:55.939Z,6.80
2022-12-01T09:54:22.698Z,6.50
2022-12-01T09:56:53.384Z,6.40
2022-12-01T09:59:22.511Z,6.50
2022-12-01T10:01:54.545Z,6.50
2022-12-01T10:04:26.683Z,6.50
2022-12-01T10:07:14.128Z,6.50
2022-12-01T10:09:46.201Z,6.50
2022-12-01T10:12:16.824Z,6.50
2022-12-01T10:14:47.282Z,6.60
2022-12-01T10:17:28.334Z,6.80
2022-12-01T10:19:55.057Z,6.90
2022-12-01T10:22:39.822Z,6.90
2022-12-01T10:25:15.700Z,6.90
2022-12-01T10:27:51.726Z,6.80
2022-12-01T10:30:19.448Z,7.00
2022-12-01T10:32:52.637Z,7.10
2022-12-01T10:35:20.618Z,7.00
2022-12-01T10:37:47.594Z,7.00
2022-12-01T10:40:14.943Z,6.80
2022-12-01T10:42:45.228Z,6.70
2022-12-01T10:45:28.115Z,6.60
2022-12-01T10:48:15.237Z,6.70
2022-12-01T10:50:46.400Z,6.70
2022-12-01T10:53:36.685Z,6.70
2022-12-01T10:56:24.733Z,6.90
2022-12-01T10:59:00.030Z,6.80
2022-12-01T11:01:36.330Z,6.80
2022-12-01T11:04:07.098Z,6.80
2022-12-01T11:06:33.837Z,6.70
2022-12-01T11:09:04.354Z,6.60
2022-12-01T11:11:40.525Z,6.70
2022-12-01T11:14:15.772Z,6.50
2022-12-01T11:16:43.557Z,6.50
2022-12-01T11:19:26.898Z,6.60
2022-12-01T11:21:54.930Z,6.70
2022-12-01T11:24:30.914Z,6.80
2022-12-01T11:26:57.672Z,6.90
2022-12-01T11:29:37.578Z,6.80
2022-12-01T11:32:11.877Z,6.70
2022-12-01T11:34:38.724Z,6.90
2022-12-01T11:37:08.527Z,6.90
2022-12-01T11:39:36.481Z,6.70
2022-12-01T11:42:26.257Z,6.70
2022-12-01T11:44:54.287Z,6.70
2022-12-01T11:47:23.810Z,6.70
2022-12-01T11:49:54.956Z,6.60
2022-12-01T11:52:27.671Z,6.70
2022-12-01T11:54:58.364Z,6.70
2022-12-01T11:57:34.295Z,6.70
2022-12-01T12:00:02.179Z,6.60
2022-12-01T12:02:32.059Z,6.80
2022-12-01T12:04:58.683Z,6.80
2022-12-01T12:07:35.492Z,6.80
2022-12-01T12:10:02.248Z,6.80
2022-12-01T12:12:33.950Z,6.80
2022-12-01T12:15:19.387Z,6.60
2022-12-01T12:17:54.681Z,6.70
2022-12-01T12:20:25.027Z,6.60
2022-12-01T12:22:57.807Z,6.60
2022-12-01T12:25:27.647Z,6.80
2022-12-01T12:27:54.333Z,6.60
2022-12-01T12:30:22.096Z,6.60
2022-12-01T12:33:04.680Z,6.70
2022-12-01T12:35:50.418Z,6.80
2022-12-01T12:38:35.901Z,6.80
2022-12-01T12:41:05.647Z,6.90
2022-12-01T12:43:52.107Z,6.90
2022-12-01T12:46:18.802Z,6.90
2022-12-01T12:49:18.649Z,7.00
2022-12-01T12:52:07.844Z,7.00
2022-12-01T12:54:43.452Z,7.10
2022-12-01T12:57:29.826Z,7.20
2022-12-01T13:00:22.836Z,7.10
2022-12-01T13:02:51.741Z,6.90
2022-12-01T13:05:18.641Z,7.00
2022-12-01T13:08:08.508Z,7.00
2022-12-01T13:10:54.225Z,7.00
2022-12-01T13:13:30.159Z,6.90
2022-12-01T13:15:56.882Z,6.70
2022-12-01T13:18:28.217Z,6.60
2022-12-01T13:20:55.546Z,6.70
2022-12-01T13:23:22.699Z,6.70
2022-12-01T13:26:31.018Z,6.80
2022-12-01T13:28:57.720Z,6.90
2022-12-01T13:31:24.449Z,6.80
2022-12-01T13:33:58.366Z,6.70
2022-12-01T13:39:17.810Z,6.80
2022-12-01T13:41:44.506Z,6.80
2022-12-01T13:44:20.012Z,6.80
2022-12-01T13:46:47.139Z,6.90
2022-12-01T13:49:46.160Z,6.90
2022-12-01T13:52:26.662Z,6.90
2022-12-01T13:54:59.431Z,6.90
2022-12-01T13:57:27.095Z,7.00
2022-12-01T14:00:00.041Z,6.90
2022-12-01T14:02:27.532Z,6.80
2022-12-01T14:05:13.320Z,6.90
2022-12-01T14:07:40.132Z,6.90
2022-12-01T14:10:15.363Z,6.80
2022-12-01T14:12:44.769Z,6.80
2022-12-01T14:15:28.001Z,6.70
2022-12-01T14:18:41.117Z,6.80
2022-12-01T14:21:09.505Z,6.90
2022-12-01T14:24:08.663Z,6.90
2022-12-01T14:26:44.841Z,6.90
2022-12-01T14:29:40.247Z,6.90
2022-12-01T14:32:09.856Z,6.70
2022-12-01T14:34:37.389Z,6.80
2022-12-01T14:37:04.095Z,7.00
2022-12-01T14:39:46.500Z,7.00
2022-12-01T14:42:50.809Z,7.10
2022-12-01T14:45:19.176Z,7.00
2022-12-01T14:47:47.949Z,7.10
2022-12-01T14:50:24.757Z,7.00
2022-12-01T14:52:55.949Z,7.00
2022-12-01T14:55:27.209Z,6.90
2022-12-01T14:58:05.957Z,7.00
2022-12-01T15:00:34.215Z,7.20
2022-12-01T15:03:02.366Z,7.20
2022-12-01T15:05:29.873Z,7.10
2022-12-01T15:08:18.681Z,7.00
2022-12-01T15:10:54.229Z,7.00
2022-12-01T15:13:21.094Z,6.90
2022-12-01T15:16:10.634Z,7.10
2022-12-01T15:18:37.347Z,7.10
2022-12-01T15:21:14.365Z,7.10
2022-12-01T15:24:04.319Z,7.10
2022-12-01T15:26:31.829Z,7.00
2022-12-01T15:29:14.285Z,7.00
2022-12-01T15:31:41.118Z,6.80
2022-12-01T15:34:08.596Z,6.80
2022-12-01T15:36:35.268Z,7.10
2022-12-01T15:39:06.851Z,7.10
2022-12-01T15:41:33.970Z,7.00
2022-12-01T15:44:05.437Z,7.00
2022-12-01T15:46:32.837Z,6.90
2022-12-01T15:49:14.606Z,7.30
2022-12-01T15:51:41.295Z,7.30
2022-12-01T15:54:12.389Z,7.20
2022-12-01T15:56:39.270Z,7.20
2022-12-01T15:59:25.210Z,7.30
2022-12-01T16:01:51.880Z,7.50
2022-12-01T16:04:19.786Z,7.40
2022-12-01T16:06:59.688Z,7.30
2022-12-01T16:09:31.122Z,7.20
2022-12-01T16:12:04.160Z,7.30
2022-12-01T16:14:32.323Z,7.30
2022-12-01T16:16:59.744Z,7.20
2022-12-01T16:19:30.480Z,7.20
2022-12-01T16:22:39.299Z,7.00
2022-12-01T16:25:06.460Z,7.00
2022-12-01T16:27:33.151Z,6.80
2022-12-01T16:30:06.403Z,7.10
2022-12-01T16:32:33.101Z,7.10
2022-12-01T16:34:59.953Z,7.10
2022-12-01T16:37:26.902Z,7.00
2022-12-01T16:39:53.670Z,7.00
2022-12-01T16:42:21.204Z,7.20
2022-12-01T16:44:48.518Z,7.20
2022-12-01T16:47:18.490Z,7.20
2022-12-01T16:49:45.278Z,7.20
2022-12-01T16:54:58.686Z,7.00
2022-12-01T16:57:25.419Z,7.10
2022-12-01T16:59:53.136Z,6.90
2022-12-01T17:02:20.187Z,6.90
2022-12-01T17:04:46.850Z,7.20
2022-12-01T17:07:13.505Z,7.30
2022-12-01T17:09:40.154Z,7.30
2022-12-01T17:12:06.933Z,7.30
2022-12-01T17:14:33.602Z,7.20
2022-12-01T17:17:00.245Z,7.20
2022-12-01T17:19:26.903Z,7.10
2022-12-01T17:21:56.960Z,7.20
2022-12-01T17:24:23.917Z,7.20
2022-12-01T17:26:50.569Z,7.20
2022-12-01T17:29:17.283Z,7.20
2022-12-01T17:31:44.034Z,7.20
2022-12-01T17:34:10.747Z,7.10
2022-12-01T17:36:37.455Z,7.10
2022-12-01T17:39:04.106Z,7.20
2022-12-01T17:41:35.629Z,7.10
2022-12-01T17:44:03.331Z,7.10
2022-12-01T17:46:30.298Z,7.00
2022-12-01T17:48:57.071Z,7.10
2022-12-01T17:51:23.776Z,7.20
2022-12-01T17:53:50.395Z,7.40
2022-12-01T17:56:17.550Z,7.40
2022-12-01T17:58:44.312Z,7.50
2022-12-01T18:01:12.698Z,7.40
2022-12-01T18:03:39.414Z,7.30
2022-12-01T18:06:06.167Z,7.30
2022-12-01T18:08:34.210Z,7.20
2022-12-01T18:11:02.135Z,7.30
2022-12-01T18:13:28.876Z,7.20
2022-12-01T18:15:55.648Z,7.40
2022-12-01T18:18:22.358Z,7.20
2022-12-01T18:20:49.046Z,7.20
2022-12-01T18:23:15.816Z,7.20
2022-12-01T18:25:42.527Z,7.20
2022-12-01T18:28:11.170Z,7.20
2022-12-01T18:30:38.756Z,7.30
2022-12-01T18:33:08.713Z,7.30
2022-12-01T18:35:35.402Z,7.30
2022-12-01T18:38:02.021Z,7.20
2022-12-01T18:40:28.686Z,7.30
2022-12-01T18:42:55.414Z,7.30
2022-12-01T18:45:22.077Z,7.10
2022-12-01T18:47:48.768Z,7.00
2022-12-01T18:50:15.480Z,7.10
2022-12-01T18:52:42.168Z,7.10
2022-12-01T18:55:09.018Z,7.10
2022-12-01T18:57:35.717Z,7.20
2022-12-01T19:00:04.561Z,7.10
2022-12-01T19:02:31.273Z,7.10
2022-12-01T19:04:57.994Z,7.00
2022-12-01T19:07:29.561Z,7.10
2022-12-01T19:09:56.563Z,7.10
2022-12-01T19:12:23.316Z,7.20
2022-12-01T19:14:52.990Z,7.30
2022-12-01T19:17:20.039Z,7.40
2022-12-01T19:19:46.739Z,7.40
2022-12-01T19:22:13.374Z,7.40
2022-12-01T19:24:40.005Z,7.50
2022-12-01T19:27:06.718Z,7.30
2022-12-01T19:29:33.449Z,7.10
2022-12-01T19:32:00.427Z,7.00
2022-12-01T19:34:27.192Z,7.10
2022-12-01T19:36:53.984Z,7.10
2022-12-01T19:39:20.752Z,7.00
2022-12-01T19:41:47.515Z,7.10
2022-12-01T19:44:14.312Z,7.20
2022-12-01T19:46:41.120Z,7.30
2022-12-01T19:49:07.898Z,7.10
2022-12-01T19:51:35.469Z,6.90
2022-12-01T19:54:02.810Z,7.00
2022-12-01T19:56:29.749Z,7.20
2022-12-01T19:58:57.146Z,7.10
2022-12-01T20:01:23.883Z,7.20
2022-12-01T20:03:51.130Z,7.10
2022-12-01T20:06:28.107Z,6.80
2022-12-01T20:08:55.308Z,6.40
2022-12-01T20:11:21.997Z,6.60
2022-12-01T20:13:48.703Z,6.80
2022-12-01T20:16:16.967Z,6.90
2022-12-01T20:18:43.786Z,6.90
2022-12-01T20:21:16.481Z,6.90
2022-12-01T20:23:43.565Z,7.00
2022-12-01T20:26:10.428Z,7.00
2022-12-01T20:28:37.568Z,6.90
2022-12-01T20:31:07.988Z,6.90
2022-12-01T20:33:34.636Z,6.80
2022-12-01T20:36:01.447Z,6.80
2022-12-01T20:38:28.124Z,7.00
2022-12-01T20:40:54.849Z,6.90
2022-12-01T20:43:21.521Z,6.70
2022-12-01T20:45:48.203Z,6.80
2022-12-01T20:48:15.191Z,6.90
2022-12-01T20:50:41.815Z,7.00
2022-12-01T20:53:08.621Z,6.80
2022-12-01T20:55:36.813Z,6.80
2022-12-01T20:58:04.154Z,6.70
2022-12-01T21:00:30.898Z,6.80
2022-12-01T21:02:57.624Z,6.90
2022-12-01T21:05:24.923Z,7.00
2022-12-01T21:07:51.662Z,6.90
2022-12-01T21:10:20.146Z,6.90
2022-12-01T21:13:07.275Z,6.90
2022-12-01T21:15:35.449Z,6.90
2022-12-01T21:18:08.400Z,7.00
2022-12-01T21:20:40.346Z,6.80
2022-12-01T21:23:10.795Z,6.70
2022-12-01T21:25:37.874Z,6.70
2022-12-01T21:28:10.644Z,6.70
2022-12-01T21:30:37.670Z,6.60
2022-12-01T21:33:23.305Z,6.50
2022-12-01T21:35:51.187Z,6.50
2022-12-01T21:38:21.876Z,6.50
2022-12-01T21:40:49.017Z,6.60
2022-12-01T21:43:20.058Z,6.60
2022-12-01T21:45:46.766Z,6.40
2022-12-01T21:48:15.326Z,6.50
2022-12-01T21:50:49.414Z,6.40
2022-12-01T21:53:20.565Z,6.40
2022-12-01T21:55:47.689Z,6.50
2022-12-01T21:58:24.719Z,6.50
2022-12-01T22:00:54.646Z,6.40
2022-12-01T22:03:34.518Z,6.50
2022-12-01T22:06:28.417Z,6.40
2022-12-01T22:08:50.616Z,6.50
2022-12-01T22:11:22.077Z,6.40
2022-12-01T22:13:53.459Z,6.40
2022-12-01T22:16:20.324Z,6.40
2022-12-01T22:18:49.209Z,6.30
2022-12-01T22:21:21.998Z,6.50
2022-12-01T22:23:49.133Z,6.40
2022-12-01T22:26:19.907Z,6.30
2022-12-01T22:28:46.863Z,6.40
2022-12-01T22:31:16.578Z,6.50
2022-12-01T22:33:43.338Z,6.50
2022-12-01T22:36:18.900Z,6.50
2022-12-01T22:38:45.715Z,6.30
2022-12-01T22:41:16.016Z,6.40
2022-12-01T22:43:42.961Z,6.40
2022-12-01T22:46:12.084Z,6.40
2022-12-01T22:48:43.569Z,6.40
2022-12-01T22:51:13.352Z,6.40
2022-12-01T22:53:40.477Z,6.40
2022-12-01T22:56:36.695Z,6.40
2022-12-01T22:59:10.317Z,6.10
2022-12-01T23:01:37.039Z,6.30
2022-12-01T23:04:03.775Z,6.20
2022-12-01T23:06:49.062Z,6.40
2022-12-01T23:09:15.738Z,6.40
2022-12-01T23:11:42.934Z,6.50
2022-12-01T23:14:15.840Z,6.50
2022-12-01T23:16:42.529Z,6.40
2022-12-01T23:19:09.700Z,6.20
2022-12-01T23:21:36.519Z,6.20
2022-12-01T23:24:03.548Z,6.30
2022-12-01T23:26:30.276Z,6.20
2022-12-01T23:28:57.163Z,6.10
2022-12-01T23:31:24.200Z,6.00
2022-12-01T23:33:50.996Z,6.20
2022-12-01T23:36:27.791Z,6.00
2022-12-01T23:38:55.564Z,6.00
2022-12-01T23:41:28.660Z,6.10
2022-12-01T23:43:55.484Z,6.10
2022-12-01T23:46:25.101Z,5.90
2022-12-01T23:48:51.825Z,5.90
2022-12-01T23:51:19.290Z,6.00
2022-12-01T23:53:46.270Z,6.10
2022-12-01T23:56:15.544Z,6.20
2022-12-01T23:58:43.277Z,6.20
